createdAt,value
2022-11-25T00:00:10.252Z,3.20
2022-11-25T00:01:15.711Z,3.05
2022-11-25T00:02:17.987Z,2.63
2022-11-25T00:03:21.506Z,3.05
2022-11-25T00:04:25.014Z,2.75
2022-11-25T00:05:28.631Z,3.20
2022-11-25T00:06:33.290Z,2.80
2022-11-25T00:07:36.101Z,2.78
2022-11-25T00:08:40.184Z,2.88
2022-11-25T00:09:42.881Z,2.83
2022-11-25T00:10:46.215Z,2.90
2022-11-25T00:11:48.629Z,2.67
2022-11-25T00:12:52.119Z,2.05
2022-11-25T00:13:55.615Z,2.60
2022-11-25T00:14:58.956Z,2.30
2022-11-25T00:16:04.070Z,2.70
2022-11-25T00:17:07.644Z,2.60
2022-11-25T00:18:10.231Z,2.90
2022-11-25T00:19:13.863Z,3.10
2022-11-25T00:20:16.496Z,2.70
2022-11-25T00:21:21.563Z,2.97
2022-11-25T00:22:24.019Z,2.80
2022-11-25T00:23:33.059Z,3.78
2022-11-25T00:24:35.836Z,3.80
2022-11-25T00:25:39.287Z,3.38
2022-11-25T00:26:41.649Z,3.03
2022-11-25T00:27:45.115Z,3.03
2022-11-25T00:28:48.335Z,3.13
2022-11-25T00:29:51.725Z,3.28
2022-11-25T00:30:54.000Z,2.58
2022-11-25T00:31:59.117Z,2.60
2022-11-25T00:33:01.453Z,2.95
2022-11-25T00:34:05.458Z,3.22
2022-11-25T00:35:08.455Z,3.08
2022-11-25T00:36:17.651Z,2.75
2022-11-25T00:37:19.868Z,2.63
2022-11-25T00:38:23.194Z,3.15
2022-11-25T00:39:27.301Z,3.42
2022-11-25T00:40:29.667Z,2.63
2022-11-25T00:41:50.458Z,2.92
2022-11-25T00:43:11.417Z,2.95
2022-11-25T00:44:34.115Z,2.13
2022-11-25T00:45:37.697Z,2.97
2022-11-25T00:46:40.050Z,2.53
2022-11-25T00:47:44.813Z,2.83
2022-11-25T00:48:47.100Z,3.10
2022-11-25T00:49:52.732Z,2.80
2022-11-25T00:50:55.098Z,2.88
2022-11-25T00:51:58.431Z,2.30
2022-11-25T00:53:00.635Z,2.72
2022-11-25T00:54:04.088Z,2.83
2022-11-25T00:55:07.869Z,2.72
2022-11-25T00:56:15.906Z,2.22
2022-11-25T00:57:21.130Z,2.50
2022-11-25T00:58:23.407Z,2.40
2022-11-25T00:59:27.148Z,2.43
2022-11-25T01:00:29.347Z,2.28
2022-11-25T01:01:32.915Z,2.20
2022-11-25T01:02:35.243Z,2.30
2022-11-25T01:03:40.463Z,3.03
2022-11-25T01:04:43.829Z,2.45
2022-11-25T01:05:46.278Z,2.83
2022-11-25T01:06:49.671Z,2.90
2022-11-25T01:07:52.009Z,2.83
2022-11-25T01:08:55.454Z,3.03
2022-11-25T01:09:58.691Z,2.80
2022-11-25T01:11:01.303Z,2.80
2022-11-25T01:12:05.380Z,2.47
2022-11-25T01:13:07.741Z,2.65
2022-11-25T01:14:11.276Z,2.90
2022-11-25T01:15:13.642Z,2.70
2022-11-25T01:16:18.824Z,2.92
2022-11-25T01:17:21.119Z,2.63
2022-11-25T01:18:24.664Z,2.88
2022-11-25T01:19:29.138Z,2.15
2022-11-25T01:20:32.623Z,2.93
2022-11-25T01:21:35.797Z,2.30
2022-11-25T01:22:39.233Z,2.53
2022-11-25T01:23:42.404Z,2.20
2022-11-25T01:24:45.872Z,2.92
2022-11-25T01:25:48.088Z,2.70
2022-11-25T01:26:51.364Z,2.97
2022-11-25T01:27:53.592Z,2.92
2022-11-25T01:28:58.824Z,3.10
2022-11-25T01:30:01.147Z,2.97
2022-11-25T01:31:06.242Z,3.00
2022-11-25T01:32:08.621Z,2.90
2022-11-25T01:33:12.069Z,3.28
2022-11-25T01:34:16.021Z,3.40
2022-11-25T01:35:20.741Z,2.83
2022-11-25T01:36:23.320Z,3.17
2022-11-25T01:37:26.664Z,2.78
2022-11-25T01:38:29.371Z,2.65
2022-11-25T01:39:33.391Z,3.00
2022-11-25T01:40:36.809Z,2.50
2022-11-25T01:41:40.507Z,3.23
2022-11-25T01:42:43.884Z,2.55
2022-11-25T01:44:09.741Z,3.20
2022-11-25T01:45:33.906Z,2.60
2022-11-25T01:46:49.458Z,2.22
2022-11-25T01:47:57.306Z,2.45
2022-11-25T01:49:04.960Z,2.63
2022-11-25T01:50:11.145Z,3.03
2022-11-25T01:51:25.511Z,3.00
2022-11-25T01:52:32.469Z,2.95
2022-11-25T01:53:34.731Z,2.57
2022-11-25T01:54:42.133Z,2.80
2022-11-25T01:55:47.202Z,2.63
2022-11-25T01:56:52.631Z,2.70
2022-11-25T01:57:59.085Z,2.67
2022-11-25T01:59:03.100Z,2.92
2022-11-25T02:00:08.159Z,2.30
2022-11-25T02:01:11.935Z,2.63
2022-11-25T02:02:16.080Z,2.72
2022-11-25T02:03:23.798Z,2.85
2022-11-25T02:04:32.710Z,2.47
2022-11-25T02:05:41.933Z,2.80
2022-11-25T02:06:49.892Z,2.55
2022-11-25T02:07:55.452Z,2.40
2022-11-25T02:09:03.455Z,2.30
2022-11-25T02:10:11.078Z,2.47
2022-11-25T02:11:15.180Z,2.97
2022-11-25T02:12:20.494Z,2.50
2022-11-25T02:13:24.044Z,2.38
2022-11-25T02:14:28.321Z,2.42
2022-11-25T02:15:33.817Z,3.23
2022-11-25T02:16:37.215Z,2.53
2022-11-25T02:17:39.909Z,2.75
2022-11-25T02:18:43.411Z,2.90
2022-11-25T02:20:00.140Z,2.67
2022-11-25T02:21:03.758Z,2.85
2022-11-25T02:22:12.262Z,2.65
2022-11-25T02:23:26.505Z,3.42
2022-11-25T02:24:36.203Z,2.88
2022-11-25T02:25:43.051Z,2.60
2022-11-25T02:26:45.411Z,2.70
2022-11-25T02:27:52.780Z,2.72
2022-11-25T02:28:55.412Z,2.40
2022-11-25T02:29:58.997Z,2.30
2022-11-25T02:31:02.536Z,2.38
2022-11-25T02:32:05.465Z,2.38
2022-11-25T02:33:09.345Z,2.58
2022-11-25T02:34:11.674Z,2.25
2022-11-25T02:35:30.293Z,2.40
2022-11-25T02:36:33.899Z,2.30
2022-11-25T02:37:36.463Z,1.80
2022-11-25T02:38:44.013Z,2.35
2022-11-25T02:39:47.885Z,2.38
2022-11-25T02:40:56.565Z,2.53
2022-11-25T02:42:00.515Z,2.40
2022-11-25T02:43:03.948Z,2.60
2022-11-25T02:44:06.966Z,2.47
2022-11-25T02:45:15.294Z,2.38
2022-11-25T02:46:22.713Z,2.63
2022-11-25T02:47:26.224Z,2.70
2022-11-25T02:49:00.958Z,2.83
2022-11-25T02:49:55.599Z,2.58
2022-11-25T02:50:58.161Z,3.33
2022-11-25T02:52:01.594Z,2.95
2022-11-25T02:53:04.275Z,2.40
2022-11-25T02:54:07.981Z,2.33
2022-11-25T02:55:10.314Z,2.80
2022-11-25T02:56:16.584Z,2.45
2022-11-25T02:57:18.995Z,2.15
2022-11-25T02:58:22.995Z,2.40
2022-11-25T02:59:25.193Z,2.50
2022-11-25T03:00:28.959Z,2.60
2022-11-25T03:01:32.098Z,2.50
2022-11-25T03:02:35.658Z,2.45
2022-11-25T03:03:38.284Z,3.08
2022-11-25T03:04:41.631Z,3.20
2022-11-25T03:05:44.127Z,3.55
2022-11-25T03:06:47.584Z,2.30
2022-11-25T03:07:49.896Z,2.67
2022-11-25T03:08:53.224Z,3.05
2022-11-25T03:09:55.561Z,2.97
2022-11-25T03:10:59.016Z,2.30
2022-11-25T03:12:21.028Z,2.70
2022-11-25T03:13:24.838Z,2.55
2022-11-25T03:14:27.669Z,2.80
2022-11-25T03:15:31.252Z,2.47
2022-11-25T03:16:33.646Z,3.10
2022-11-25T03:17:37.122Z,2.60
2022-11-25T03:18:39.500Z,2.05
2022-11-25T03:19:42.758Z,2.28
2022-11-25T03:20:46.127Z,2.93
2022-11-25T03:21:48.543Z,2.90
2022-11-25T03:22:52.049Z,2.35
2022-11-25T03:23:54.359Z,2.50
2022-11-25T03:24:57.741Z,2.28
2022-11-25T03:26:00.130Z,1.98
2022-11-25T03:27:05.391Z,2.55
2022-11-25T03:28:07.690Z,2.20
2022-11-25T03:29:10.987Z,2.20
2022-11-25T03:30:17.139Z,2.45
2022-11-25T03:31:20.576Z,2.60
2022-11-25T03:32:23.079Z,2.30
2022-11-25T03:33:26.509Z,1.80
2022-11-25T03:34:28.915Z,2.50
2022-11-25T03:35:32.253Z,2.72
2022-11-25T03:36:34.580Z,2.80
2022-11-25T03:37:38.381Z,2.58
2022-11-25T03:38:40.797Z,2.80
2022-11-25T03:39:44.266Z,2.30
2022-11-25T03:40:48.069Z,2.30
2022-11-25T03:41:51.743Z,2.30
2022-11-25T03:42:55.451Z,2.25
2022-11-25T03:43:58.779Z,2.22
2022-11-25T03:45:01.398Z,2.47
2022-11-25T03:46:04.799Z,2.47
2022-11-25T03:47:07.279Z,2.10
2022-11-25T03:48:10.761Z,2.40
2022-11-25T03:49:13.038Z,2.42
2022-11-25T03:50:17.499Z,2.90
2022-11-25T03:51:20.916Z,2.58
2022-11-25T03:52:24.537Z,2.10
2022-11-25T03:53:26.823Z,2.10
2022-11-25T03:54:30.440Z,2.30
2022-11-25T03:55:32.749Z,2.00
2022-11-25T03:56:36.310Z,1.92
2022-11-25T03:57:38.765Z,1.90
2022-11-25T03:58:43.578Z,1.90
2022-11-25T03:59:45.912Z,1.58
2022-11-25T04:00:49.218Z,1.67
2022-11-25T04:01:51.570Z,1.80
2022-11-25T04:02:54.985Z,2.03
2022-11-25T04:03:57.825Z,2.10
2022-11-25T04:05:01.535Z,1.90
2022-11-25T04:06:04.010Z,2.00
2022-11-25T04:07:07.403Z,1.95
2022-11-25T04:08:09.858Z,1.80
2022-11-25T04:09:13.297Z,2.20
2022-11-25T04:10:15.797Z,1.80
2022-11-25T04:11:19.493Z,2.53
2022-11-25T04:12:40.694Z,1.80
2022-11-25T04:13:44.582Z,1.70
2022-11-25T04:14:46.985Z,1.90
2022-11-25T04:15:51.931Z,2.00
2022-11-25T04:16:54.362Z,1.90
2022-11-25T04:17:58.455Z,1.80
2022-11-25T04:19:00.773Z,1.80
2022-11-25T04:20:04.753Z,2.05
2022-11-25T04:21:07.183Z,1.75
2022-11-25T04:22:10.485Z,1.75
2022-11-25T04:23:13.585Z,1.83
2022-11-25T04:24:17.190Z,1.93
2022-11-25T04:25:19.550Z,2.08
2022-11-25T04:26:23.002Z,1.80
2022-11-25T04:27:25.229Z,1.75
2022-11-25T04:28:28.589Z,1.98
2022-11-25T04:29:32.295Z,2.40
2022-11-25T04:30:35.751Z,2.10
2022-11-25T04:31:38.671Z,2.40
2022-11-25T04:32:42.188Z,2.50
2022-11-25T04:33:49.694Z,2.70
2022-11-25T04:34:55.603Z,2.23
2022-11-25T04:35:58.007Z,2.05
2022-11-25T04:37:01.311Z,3.28
2022-11-25T04:38:03.512Z,2.00
2022-11-25T04:39:06.792Z,2.22
2022-11-25T04:40:10.282Z,2.20
2022-11-25T04:41:13.837Z,2.40
2022-11-25T04:42:36.571Z,2.72
2022-11-25T04:43:40.167Z,1.90
2022-11-25T04:45:01.119Z,1.77
2022-11-25T04:46:14.800Z,2.00
2022-11-25T04:47:17.505Z,1.85
2022-11-25T04:48:21.160Z,2.03
2022-11-25T04:49:23.611Z,2.15
2022-11-25T04:50:27.027Z,2.08
2022-11-25T04:51:29.304Z,2.20
2022-11-25T04:52:33.857Z,2.03
2022-11-25T04:53:36.095Z,2.05
2022-11-25T04:54:39.612Z,2.35
2022-11-25T04:55:43.054Z,1.92
2022-11-25T04:56:45.610Z,2.33
2022-11-25T04:57:48.919Z,1.98
2022-11-25T04:59:09.409Z,2.10
2022-11-25T05:00:14.560Z,1.88
2022-11-25T05:01:17.889Z,2.08
2022-11-25T05:02:22.890Z,2.17
2022-11-25T05:03:25.205Z,2.00
2022-11-25T05:04:28.727Z,2.25
2022-11-25T05:05:31.202Z,2.20
2022-11-25T05:06:34.609Z,2.13
2022-11-25T05:07:38.885Z,2.20
2022-11-25T05:08:41.278Z,2.00
2022-11-25T05:09:45.249Z,1.88
2022-11-25T05:10:47.427Z,2.05
2022-11-25T05:11:50.778Z,2.33
2022-11-25T05:12:53.094Z,2.13
2022-11-25T05:13:56.426Z,2.10
2022-11-25T05:14:58.696Z,2.70
2022-11-25T05:16:03.465Z,2.10
2022-11-25T05:17:07.015Z,2.15
2022-11-25T05:18:10.555Z,2.20
2022-11-25T05:19:12.923Z,2.00
2022-11-25T05:20:16.276Z,2.60
2022-11-25T05:21:18.573Z,2.10
2022-11-25T05:22:24.106Z,2.30
2022-11-25T05:23:26.303Z,2.20
2022-11-25T05:24:29.880Z,2.22
2022-11-25T05:25:32.147Z,2.13
2022-11-25T05:26:35.460Z,2.10
2022-11-25T05:27:37.725Z,2.10
2022-11-25T05:28:41.282Z,2.23
2022-11-25T05:29:43.986Z,1.65
2022-11-25T05:30:47.387Z,1.60
2022-11-25T05:31:51.084Z,2.10
2022-11-25T05:32:54.475Z,1.92
2022-11-25T05:33:56.772Z,1.80
2022-11-25T05:35:00.279Z,2.00
2022-11-25T05:36:03.955Z,1.90
2022-11-25T05:37:07.854Z,1.92
2022-11-25T05:38:10.080Z,2.08
2022-11-25T05:39:13.407Z,2.10
2022-11-25T05:40:16.207Z,2.40
2022-11-25T05:41:19.615Z,2.20
2022-11-25T05:42:21.931Z,1.80
2022-11-25T05:43:25.324Z,2.35
2022-11-25T05:44:27.951Z,2.00
2022-11-25T05:45:31.601Z,2.22
2022-11-25T05:46:35.059Z,1.90
2022-11-25T05:47:38.740Z,1.80
2022-11-25T05:48:42.153Z,2.67
2022-11-25T05:49:44.423Z,1.90
2022-11-25T05:50:47.622Z,2.35
2022-11-25T05:51:51.043Z,2.20
2022-11-25T05:52:53.342Z,2.08
2022-11-25T05:53:57.179Z,2.08
2022-11-25T05:54:59.387Z,1.83
2022-11-25T05:56:04.787Z,1.85
2022-11-25T05:57:06.962Z,1.90
2022-11-25T05:58:10.807Z,2.28
2022-11-25T05:59:13.987Z,2.20
2022-11-25T06:00:16.623Z,1.87
2022-11-25T06:01:20.052Z,2.20
2022-11-25T06:02:22.385Z,2.00
2022-11-25T06:03:27.462Z,2.13
2022-11-25T06:04:29.972Z,1.70
2022-11-25T06:05:36.167Z,1.90
2022-11-25T06:06:38.362Z,2.28
2022-11-25T06:07:41.831Z,1.60
2022-11-25T06:08:44.135Z,2.00
2022-11-25T06:09:48.314Z,1.95
2022-11-25T06:10:50.778Z,1.60
2022-11-25T06:11:54.195Z,2.00
2022-11-25T06:12:56.540Z,1.95
2022-11-25T06:14:00.226Z,2.33
2022-11-25T06:15:02.930Z,2.58
2022-11-25T06:16:10.987Z,2.00
2022-11-25T06:17:13.300Z,1.75
2022-11-25T06:18:18.491Z,2.00
2022-11-25T06:19:22.166Z,2.00
2022-11-25T06:20:25.553Z,2.00
2022-11-25T06:21:28.875Z,1.97
2022-11-25T06:22:31.160Z,1.85
2022-11-25T06:23:35.098Z,2.30
2022-11-25T06:24:37.585Z,2.58
2022-11-25T06:25:41.569Z,2.20
2022-11-25T06:26:43.766Z,1.73
2022-11-25T06:28:11.453Z,2.60
2022-11-25T06:29:10.376Z,2.25
2022-11-25T06:30:14.252Z,2.38
2022-11-25T06:31:20.487Z,1.98
2022-11-25T06:32:22.765Z,2.30
2022-11-25T06:33:26.600Z,2.17
2022-11-25T06:34:30.150Z,2.10
2022-11-25T06:35:33.575Z,2.20
2022-11-25T06:36:35.904Z,2.10
2022-11-25T06:37:39.619Z,2.10
2022-11-25T06:38:41.832Z,2.10
2022-11-25T06:39:44.996Z,1.90
2022-11-25T06:40:47.183Z,1.92
2022-11-25T06:41:50.547Z,1.95
2022-11-25T06:42:52.913Z,1.73
2022-11-25T06:43:56.182Z,2.42
2022-11-25T06:44:58.442Z,1.70
2022-11-25T06:46:06.735Z,2.30
2022-11-25T06:47:08.992Z,1.80
2022-11-25T06:48:12.203Z,1.75
2022-11-25T06:49:14.439Z,2.00
2022-11-25T06:50:19.465Z,2.08
2022-11-25T06:51:21.798Z,2.22
2022-11-25T06:52:25.963Z,1.95
2022-11-25T06:53:28.556Z,1.80
2022-11-25T06:54:32.073Z,2.20
2022-11-25T06:55:34.254Z,1.98
2022-11-25T06:56:38.206Z,2.03
2022-11-25T06:57:40.535Z,2.08
2022-11-25T06:58:45.579Z,1.83
2022-11-25T06:59:48.051Z,1.80
2022-11-25T07:00:51.379Z,2.17
2022-11-25T07:01:54.654Z,2.00
2022-11-25T07:02:56.946Z,1.90
2022-11-25T07:04:01.958Z,2.00
2022-11-25T07:05:04.275Z,2.30
2022-11-25T07:06:09.738Z,1.73
2022-11-25T07:07:12.526Z,2.00
2022-11-25T07:08:16.273Z,1.60
2022-11-25T07:09:19.569Z,1.90
2022-11-25T07:10:22.837Z,1.77
2022-11-25T07:11:27.375Z,1.75
2022-11-25T07:12:32.147Z,1.70
2022-11-25T07:13:34.467Z,2.25
2022-11-25T07:14:37.881Z,1.70
2022-11-25T07:15:40.419Z,1.70
2022-11-25T07:16:45.661Z,1.90
2022-11-25T07:17:48.893Z,2.03
2022-11-25T07:18:52.615Z,1.73
2022-11-25T07:19:55.357Z,1.95
2022-11-25T07:21:03.712Z,2.08
2022-11-25T07:22:08.476Z,2.22
2022-11-25T07:23:10.852Z,2.05
2022-11-25T07:24:16.490Z,1.98
2022-11-25T07:25:19.787Z,2.00
2022-11-25T07:26:24.500Z,2.30
2022-11-25T07:27:27.850Z,1.92
2022-11-25T07:28:30.129Z,2.10
2022-11-25T07:29:57.943Z,1.80
2022-11-25T07:32:29.245Z,2.35
2022-11-25T07:33:31.530Z,1.67
2022-11-25T07:34:34.969Z,2.28
2022-11-25T07:35:37.264Z,2.15
2022-11-25T07:36:41.205Z,2.10
2022-11-25T07:37:46.207Z,2.30
2022-11-25T07:38:49.355Z,1.90
2022-11-25T07:39:52.714Z,1.85
2022-11-25T07:40:55.190Z,2.08
2022-11-25T07:41:58.420Z,2.00
2022-11-25T07:43:00.611Z,2.13
2022-11-25T07:44:06.406Z,2.20
2022-11-25T07:45:10.517Z,1.73
2022-11-25T07:46:16.377Z,1.95
2022-11-25T07:47:19.768Z,2.40
2022-11-25T07:48:22.319Z,2.28
2022-11-25T07:49:26.218Z,2.70
2022-11-25T07:50:29.507Z,2.08
2022-11-25T07:51:34.828Z,2.85
2022-11-25T07:52:40.617Z,2.47
2022-11-25T07:53:44.684Z,2.47
2022-11-25T07:54:48.279Z,2.75
2022-11-25T07:55:50.680Z,2.25
2022-11-25T07:56:54.040Z,2.08
2022-11-25T07:57:56.320Z,2.27
2022-11-25T07:58:59.788Z,2.08
2022-11-25T08:00:03.274Z,2.05
2022-11-25T08:01:06.932Z,2.10
2022-11-25T08:02:11.012Z,2.20
2022-11-25T08:03:13.282Z,2.15
2022-11-25T08:04:20.399Z,2.33
2022-11-25T08:05:23.300Z,2.67
2022-11-25T08:06:29.189Z,2.28
2022-11-25T08:07:36.464Z,2.50
2022-11-25T08:08:40.620Z,2.03
2022-11-25T08:09:45.273Z,2.03
2022-11-25T08:10:47.432Z,2.17
2022-11-25T08:11:51.466Z,2.30
2022-11-25T08:12:53.741Z,2.10
2022-11-25T08:13:58.297Z,2.22
2022-11-25T08:15:00.511Z,3.00
2022-11-25T08:16:04.148Z,2.10
2022-11-25T08:17:07.368Z,2.20
2022-11-25T08:18:09.598Z,1.98
2022-11-25T08:19:14.845Z,1.50
2022-11-25T08:20:18.160Z,2.22
2022-11-25T08:21:20.604Z,1.83
2022-11-25T08:22:23.974Z,1.85
2022-11-25T08:23:26.317Z,2.05
2022-11-25T08:24:29.503Z,1.58
2022-11-25T08:25:33.144Z,1.73
2022-11-25T08:26:37.843Z,1.70
2022-11-25T08:27:41.403Z,1.90
2022-11-25T08:28:45.203Z,1.65
2022-11-25T08:29:48.610Z,1.90
2022-11-25T08:30:51.118Z,2.65
2022-11-25T08:31:54.543Z,2.92
2022-11-25T08:32:58.317Z,3.35
2022-11-25T08:34:02.352Z,3.63
2022-11-25T08:35:06.529Z,2.33
2022-11-25T08:36:10.130Z,2.70
2022-11-25T08:37:13.388Z,2.60
2022-11-25T08:38:15.890Z,3.35
2022-11-25T08:39:51.656Z,2.03
2022-11-25T08:40:46.933Z,2.57
2022-11-25T08:41:50.370Z,2.17
2022-11-25T08:42:52.910Z,2.25
2022-11-25T08:43:56.848Z,2.55
2022-11-25T08:45:00.192Z,2.20
2022-11-25T08:46:07.340Z,2.58
2022-11-25T08:47:11.251Z,2.72
2022-11-25T08:48:13.520Z,2.60
2022-11-25T08:49:19.464Z,2.63
2022-11-25T08:50:24.596Z,2.47
2022-11-25T08:51:30.441Z,2.10
2022-11-25T08:52:32.680Z,2.50
2022-11-25T08:53:36.340Z,2.63
2022-11-25T08:54:39.623Z,2.80
2022-11-25T08:55:42.017Z,2.60
2022-11-25T08:56:46.693Z,2.95
2022-11-25T08:57:50.076Z,2.65
2022-11-25T08:58:52.697Z,2.88
2022-11-25T08:59:56.201Z,2.85
2022-11-25T09:00:58.665Z,3.55
2022-11-25T09:02:02.412Z,3.10
2022-11-25T09:03:04.920Z,2.78
2022-11-25T09:04:08.831Z,2.92
2022-11-25T09:05:13.308Z,3.30
2022-11-25T09:06:17.334Z,3.35
2022-11-25T09:07:19.701Z,3.00
2022-11-25T09:08:23.260Z,2.80
2022-11-25T09:09:26.577Z,2.60
2022-11-25T09:10:28.910Z,3.25
2022-11-25T09:11:32.099Z,2.60
2022-11-25T09:12:37.036Z,2.70
2022-11-25T09:13:40.023Z,2.33
2022-11-25T09:14:43.827Z,2.83
2022-11-25T09:15:46.219Z,2.70
2022-11-25T09:16:49.808Z,2.47
2022-11-25T09:17:58.680Z,2.72
2022-11-25T09:19:02.127Z,2.58
2022-11-25T09:20:05.704Z,2.42
2022-11-25T09:21:11.392Z,2.42
2022-11-25T09:22:14.797Z,2.22
2022-11-25T09:23:18.503Z,2.47
2022-11-25T09:24:22.015Z,2.17
2022-11-25T09:25:24.579Z,2.35
2022-11-25T09:26:30.227Z,2.45
2022-11-25T09:27:34.335Z,2.58
2022-11-25T09:28:39.316Z,2.67
2022-11-25T09:29:42.837Z,2.70
2022-11-25T09:30:45.387Z,2.35
2022-11-25T09:31:54.540Z,2.60
2022-11-25T09:32:57.388Z,2.42
2022-11-25T09:34:00.850Z,2.70
2022-11-25T09:35:03.197Z,2.60
2022-11-25T09:36:07.310Z,2.38
2022-11-25T09:37:10.735Z,2.72
2022-11-25T09:38:14.262Z,2.72
2022-11-25T09:39:17.424Z,2.40
2022-11-25T09:40:25.617Z,3.30
2022-11-25T09:42:06.776Z,2.40
2022-11-25T09:43:39.498Z,2.35
2022-11-25T09:45:16.329Z,2.42
2022-11-25T09:46:43.457Z,2.33
2022-11-25T09:47:57.829Z,2.40
2022-11-25T09:49:12.175Z,2.47
2022-11-25T09:50:22.393Z,2.33
2022-11-25T09:51:33.277Z,2.05
2022-11-25T09:52:43.398Z,2.47
2022-11-25T09:53:48.312Z,2.17
2022-11-25T09:54:59.791Z,2.10
2022-11-25T09:56:04.413Z,2.30
2022-11-25T09:57:22.926Z,1.95
2022-11-25T09:58:31.460Z,1.90
2022-11-25T09:59:42.897Z,2.08
2022-11-25T10:00:49.543Z,1.90
2022-11-25T10:01:57.530Z,2.20
2022-11-25T10:03:08.324Z,1.80
2022-11-25T10:04:14.872Z,2.13
2022-11-25T10:05:26.755Z,1.85
2022-11-25T10:06:31.376Z,1.75
2022-11-25T10:07:39.681Z,1.90
2022-11-25T10:08:44.917Z,2.10
2022-11-25T10:09:48.596Z,1.80
2022-11-25T10:10:57.453Z,2.22
2022-11-25T10:12:07.088Z,1.70
2022-11-25T10:13:19.730Z,2.00
2022-11-25T10:14:32.295Z,1.60
2022-11-25T10:15:41.774Z,2.05
2022-11-25T10:16:53.643Z,2.40
2022-11-25T10:18:02.067Z,2.00
2022-11-25T10:19:15.101Z,1.80
2022-11-25T10:20:22.769Z,1.75
2022-11-25T10:21:27.447Z,1.80
2022-11-25T10:22:35.254Z,1.80
2022-11-25T10:23:39.846Z,2.00
2022-11-25T10:24:43.608Z,1.90
2022-11-25T10:25:48.952Z,2.08
2022-11-25T10:26:58.851Z,2.35
2022-11-25T10:28:05.180Z,1.90
2022-11-25T10:29:24.341Z,1.58
2022-11-25T10:30:29.633Z,2.17
2022-11-25T10:31:36.664Z,1.50
2022-11-25T10:32:46.388Z,1.73
2022-11-25T10:33:51.497Z,1.65
2022-11-25T10:34:59.187Z,1.63
2022-11-25T10:36:08.246Z,1.80
2022-11-25T10:37:17.866Z,1.52
2022-11-25T10:38:27.483Z,1.40
2022-11-25T10:39:34.235Z,1.88
2022-11-25T10:40:37.601Z,1.65
2022-11-25T10:41:50.601Z,1.70
2022-11-25T10:42:54.001Z,1.90
2022-11-25T10:43:56.267Z,1.60
2022-11-25T10:44:59.795Z,1.73
2022-11-25T10:46:12.961Z,1.65
2022-11-25T10:47:36.698Z,1.98
2022-11-25T10:48:52.453Z,1.60
2022-11-25T10:50:09.270Z,2.08
2022-11-25T10:51:22.476Z,1.83
2022-11-25T10:52:30.581Z,2.05
2022-11-25T10:53:34.036Z,2.10
2022-11-25T10:54:37.306Z,1.73
2022-11-25T10:55:40.691Z,1.60
2022-11-25T10:56:46.036Z,1.48
2022-11-25T10:57:49.367Z,1.45
2022-11-25T10:58:52.742Z,1.50
2022-11-25T10:59:58.192Z,1.65
2022-11-25T11:01:07.872Z,1.73
2022-11-25T11:02:20.748Z,2.05
2022-11-25T11:03:26.531Z,1.90
2022-11-25T11:04:34.601Z,1.65
2022-11-25T11:05:47.022Z,1.60
2022-11-25T11:06:51.841Z,1.63
2022-11-25T11:08:11.057Z,1.98
2022-11-25T11:09:36.554Z,2.00
2022-11-25T11:10:40.600Z,1.60
2022-11-25T11:11:50.569Z,1.63
2022-11-25T11:12:58.930Z,1.70
2022-11-25T11:14:15.888Z,1.50
2022-11-25T11:15:22.215Z,1.50
2022-11-25T11:16:33.228Z,1.98
2022-11-25T11:17:37.555Z,2.10
2022-11-25T11:18:41.885Z,1.70
2022-11-25T11:20:02.744Z,1.40
2022-11-25T11:21:08.920Z,1.60
2022-11-25T11:22:18.420Z,1.60
2022-11-25T11:23:21.907Z,1.88
2022-11-25T11:24:28.402Z,1.80
2022-11-25T11:25:36.756Z,2.15
2022-11-25T11:26:40.187Z,1.67
2022-11-25T11:27:42.707Z,1.80
2022-11-25T11:28:46.233Z,2.00
2022-11-25T11:29:49.285Z,1.60
2022-11-25T11:30:59.110Z,1.75
2022-11-25T11:32:03.855Z,1.85
2022-11-25T11:33:28.324Z,1.67
2022-11-25T11:34:46.112Z,1.33
2022-11-25T11:35:57.009Z,1.30
2022-11-25T11:37:27.227Z,1.73
2022-11-25T11:38:35.112Z,2.38
2022-11-25T11:40:00.215Z,1.73
2022-11-25T11:41:16.844Z,1.90
2022-11-25T11:42:29.322Z,2.40
2022-11-25T11:43:50.458Z,1.52
2022-11-25T11:45:05.931Z,1.88
2022-11-25T11:46:20.738Z,1.67
2022-11-25T11:47:31.866Z,1.83
2022-11-25T11:48:39.706Z,1.55
2022-11-25T11:50:18.665Z,1.75
2022-11-25T11:51:30.176Z,1.40
2022-11-25T11:52:51.025Z,2.03
2022-11-25T11:54:07.942Z,1.75
2022-11-25T11:55:27.958Z,1.70
2022-11-25T11:56:38.841Z,1.60
2022-11-25T11:57:52.887Z,1.67
2022-11-25T11:59:09.866Z,1.55
2022-11-25T12:00:16.555Z,1.73
2022-11-25T12:01:36.340Z,2.03
2022-11-25T12:02:54.218Z,1.60
2022-11-25T12:03:59.815Z,1.67
2022-11-25T12:05:14.262Z,1.90
2022-11-25T12:06:19.613Z,2.05
2022-11-25T12:07:31.497Z,2.07
2022-11-25T12:08:47.731Z,2.30
2022-11-25T12:09:56.614Z,2.75
2022-11-25T12:11:03.979Z,2.88
2022-11-25T12:12:15.816Z,3.38
2022-11-25T12:13:28.131Z,2.88
2022-11-25T12:14:38.347Z,2.60
2022-11-25T12:15:48.504Z,2.58
2022-11-25T12:16:58.060Z,2.67
2022-11-25T12:18:05.983Z,2.45
2022-11-25T12:19:18.500Z,3.17
2022-11-25T12:20:33.753Z,3.03
2022-11-25T12:21:45.478Z,2.90
2022-11-25T12:22:55.024Z,3.10
2022-11-25T12:24:05.115Z,2.55
2022-11-25T12:25:15.479Z,3.15
2022-11-25T12:26:25.156Z,3.45
2022-11-25T12:27:34.764Z,3.42
2022-11-25T12:28:44.824Z,3.30
2022-11-25T12:29:52.140Z,3.20
2022-11-25T12:31:05.314Z,3.07
2022-11-25T12:32:25.830Z,4.05
2022-11-25T12:33:42.588Z,3.15
2022-11-25T12:34:54.050Z,3.47
2022-11-25T12:36:05.104Z,3.33
2022-11-25T12:37:15.459Z,2.83
2022-11-25T12:38:29.062Z,3.30
2022-11-25T12:39:39.218Z,3.58
2022-11-25T12:40:48.387Z,3.58
2022-11-25T12:41:55.673Z,3.67
2022-11-25T12:43:11.397Z,2.97
2022-11-25T12:44:21.319Z,2.88
2022-11-25T12:45:26.356Z,3.22
2022-11-25T12:46:36.673Z,3.30
2022-11-25T12:47:39.238Z,3.10
2022-11-25T12:48:44.083Z,2.60
2022-11-25T12:49:51.066Z,2.15
2022-11-25T12:51:03.431Z,2.47
2022-11-25T12:52:26.769Z,2.70
2022-11-25T12:53:38.502Z,2.40
2022-11-25T12:54:57.995Z,2.70
2022-11-25T12:56:04.397Z,2.00
2022-11-25T12:57:34.950Z,2.00
2022-11-25T12:58:57.212Z,2.50
2022-11-25T13:00:39.985Z,2.55
2022-11-25T13:01:58.268Z,2.38
2022-11-25T13:03:27.309Z,2.60
2022-11-25T13:04:50.279Z,2.00
2022-11-25T13:06:06.904Z,2.15
2022-11-25T13:07:27.405Z,1.70
2022-11-25T13:08:50.796Z,1.80
2022-11-25T13:10:30.606Z,1.85
2022-11-25T13:11:57.914Z,1.52
2022-11-25T13:13:33.881Z,1.73
2022-11-25T13:15:03.752Z,1.40
2022-11-25T13:16:09.743Z,1.88
2022-11-25T13:17:17.041Z,1.65
2022-11-25T13:18:23.438Z,1.65
2022-11-25T13:19:27.108Z,1.45
2022-11-25T13:20:45.027Z,2.00
2022-11-25T13:22:02.801Z,1.73
2022-11-25T13:23:10.345Z,1.58
2022-11-25T13:24:34.032Z,1.83
2022-11-25T13:25:38.195Z,1.98
2022-11-25T13:26:51.716Z,2.13
2022-11-25T13:27:58.474Z,1.70
2022-11-25T13:29:02.981Z,1.92
2022-11-25T13:30:07.621Z,1.80
2022-11-25T13:31:22.840Z,2.10
2022-11-25T13:32:31.385Z,1.55
2022-11-25T13:34:00.619Z,1.77
2022-11-25T13:35:38.383Z,1.70
2022-11-25T13:36:50.866Z,2.15
2022-11-25T13:37:53.798Z,1.60
2022-11-25T13:39:04.747Z,2.03
2022-11-25T13:40:37.494Z,1.95
2022-11-25T13:41:50.026Z,1.92
2022-11-25T13:42:53.479Z,2.05
2022-11-25T13:44:02.058Z,2.00
2022-11-25T13:45:06.496Z,2.33
2022-11-25T13:46:08.898Z,2.20
2022-11-25T13:47:32.187Z,1.90
2022-11-25T13:48:37.740Z,2.20
2022-11-25T13:49:52.456Z,1.98
2022-11-25T13:51:18.757Z,2.38
2022-11-25T13:52:42.383Z,2.20
2022-11-25T13:53:52.152Z,2.45
2022-11-25T13:54:57.667Z,2.28
2022-11-25T13:56:15.945Z,3.67
2022-11-25T13:57:26.230Z,2.80
2022-11-25T13:58:35.964Z,3.43
2022-11-25T13:59:48.165Z,2.70
2022-11-25T14:01:30.161Z,3.03
2022-11-25T14:02:45.064Z,2.83
2022-11-25T14:03:54.121Z,2.45
2022-11-25T14:05:04.096Z,2.72
2022-11-25T14:06:13.263Z,2.80
2022-11-25T14:07:29.364Z,2.33
2022-11-25T14:08:39.560Z,2.35
2022-11-25T14:10:01.992Z,2.00
2022-11-25T14:11:46.193Z,1.63
2022-11-25T14:13:24.175Z,1.75
2022-11-25T14:14:54.510Z,1.73
2022-11-25T14:16:22.477Z,2.20
2022-11-25T14:17:48.574Z,1.70
2022-11-25T14:19:50.295Z,1.40
2022-11-25T14:20:41.143Z,1.95
2022-11-25T14:21:59.699Z,2.90
2022-11-25T14:23:50.021Z,1.95
2022-11-25T14:24:56.273Z,1.33
2022-11-25T14:26:06.111Z,1.30
2022-11-25T14:27:18.928Z,1.50
2022-11-25T14:28:36.362Z,1.63
2022-11-25T14:29:43.501Z,1.60
2022-11-25T14:30:53.549Z,1.40
2022-11-25T14:32:01.385Z,1.50
2022-11-25T14:33:08.701Z,1.35
2022-11-25T14:34:17.129Z,1.63
2022-11-25T14:35:22.628Z,1.55
2022-11-25T14:36:30.515Z,1.60
2022-11-25T14:37:41.375Z,1.80
2022-11-25T14:38:49.629Z,1.90
2022-11-25T14:39:56.754Z,2.08
2022-11-25T14:41:06.604Z,2.78
2022-11-25T14:42:13.674Z,2.25
2022-11-25T14:43:20.831Z,2.40
2022-11-25T14:44:28.318Z,2.67
2022-11-25T14:45:34.710Z,2.47
2022-11-25T14:46:52.563Z,3.42
2022-11-25T14:47:56.312Z,3.30
2022-11-25T14:49:00.205Z,3.23
2022-11-25T14:50:32.918Z,4.00
2022-11-25T14:51:28.418Z,3.90
2022-11-25T14:52:34.684Z,3.67
2022-11-25T14:53:47.308Z,3.58